Terminal Aerodrome Forecast
Issued by NWS

Home | Current Version | Previous Version | Graphics & Text | Print | Product List | Glossary On
Versions: 1 2 3 4 5 6 7 8 9 10 11 12 13 14 15 16 17 18 19 20 21 22 23 24
516
FTUS43 KLOT 191734
TAFMDW
TAF
KMDW 191734Z 1918/2018 07006KT P6SM FEW250
     FM192300 15005KT P6SM SKC
     FM201600 19011G17KT P6SM SKC=

USA.gov is the U.S. government's official web portal to all federal, state and local government web resources and services.